createdAt,value
2016-06-04T00:00:15.745Z,1008.26
2016-06-04T00:01:15.732Z,1008.29
2016-06-04T00:02:15.750Z,1008.29
2016-06-04T00:03:15.737Z,1008.27
2016-06-04T00:04:15.741Z,1008.27
2016-06-04T00:05:15.727Z,1008.27
2016-06-04T00:06:15.730Z,1008.3
2016-06-04T00:07:15.733Z,1008.29
2016-06-04T00:08:16.626Z,1008.28
2016-06-04T00:09:16.113Z,1008.29
2016-06-04T00:10:15.725Z,1008.32
2016-06-04T00:11:15.759Z,1008.31
2016-06-04T00:12:15.729Z,1008.34
2016-06-04T00:13:15.718Z,1008.34
2016-06-04T00:14:16.063Z,1008.34
2016-06-04T00:15:16.379Z,1008.38
2016-06-04T00:16:15.740Z,1008.35
2016-06-04T00:17:16.837Z,1008.39
2016-06-04T00:18:17.559Z,1008.37
2016-06-04T00:19:15.764Z,1008.34
2016-06-04T00:20:15.815Z,1008.36
2016-06-04T00:21:15.723Z,1008.35
2016-06-04T00:22:15.710Z,1008.36
2016-06-04T00:23:15.759Z,1008.34
2016-06-04T00:25:15.703Z,1008.32
2016-06-04T00:26:16.003Z,1008.31
2016-06-04T00:27:15.708Z,1008.32
2016-06-04T00:28:15.710Z,1008.29
2016-06-04T00:29:15.714Z,1008.31
2016-06-04T00:30:15.700Z,1008.27
2016-06-04T00:31:15.703Z,1008.3
2016-06-04T00:32:15.705Z,1008.29
2016-06-04T00:33:15.708Z,1008.33
2016-06-04T00:34:15.696Z,1008.27
2016-06-04T00:35:15.699Z,1008.26
2016-06-04T00:36:15.701Z,1008.28
2016-06-04T00:37:15.704Z,1008.28
2016-06-04T00:38:15.691Z,1008.26
2016-06-04T00:39:15.710Z,1008.27
2016-06-04T00:40:15.696Z,1008.31
2016-06-04T00:41:15.699Z,1008.3
2016-06-04T00:42:15.796Z,1008.31
2016-06-04T00:43:15.720Z,1008.31
2016-06-04T00:44:15.707Z,1008.31
2016-06-04T00:45:15.693Z,1008.3
2016-06-04T00:46:15.682Z,1008.3
2016-06-04T00:47:15.684Z,1008.34
2016-06-04T00:48:15.687Z,1008.34
2016-06-04T00:49:15.689Z,1008.35
2016-06-04T00:50:15.676Z,1008.33
2016-06-04T00:51:15.679Z,1008.35
2016-06-04T00:52:15.681Z,1008.33
2016-06-04T00:53:15.685Z,1008.37
2016-06-04T00:54:15.671Z,1008.32
2016-06-04T00:55:15.673Z,1008.32
2016-06-04T00:56:15.676Z,1008.32
2016-06-04T00:57:15.679Z,1008.32
2016-06-04T00:58:15.667Z,1008.33
2016-06-04T00:59:15.681Z,1008.28
2016-06-04T01:00:15.718Z,1008.28
2016-06-04T01:01:15.753Z,1008.27
2016-06-04T01:02:15.774Z,1008.28
2016-06-04T01:03:15.810Z,1008.27
2016-06-04T01:04:15.838Z,1008.3
2016-06-04T01:05:15.853Z,1008.33
2016-06-04T01:06:15.853Z,1008.28
2016-06-04T01:07:15.867Z,1008.26
2016-06-04T01:08:15.882Z,1008.26
2016-06-04T01:09:15.877Z,1008.27
2016-06-04T01:10:15.884Z,1008.3
2016-06-04T01:11:15.985Z,1008.29
2016-06-04T01:12:15.898Z,1008.31
2016-06-04T01:13:15.905Z,1008.29
2016-06-04T01:14:15.911Z,1008.28
2016-06-04T01:15:15.899Z,1008.28
2016-06-04T01:16:15.903Z,1008.3
2016-06-04T01:17:15.892Z,1008.33
2016-06-04T01:18:15.897Z,1008.27
2016-06-04T01:19:15.900Z,1008.33
2016-06-04T01:20:15.887Z,1008.34
2016-06-04T01:21:15.891Z,1008.33
2016-06-04T01:22:15.894Z,1008.33
2016-06-04T01:23:15.897Z,1008.32
2016-06-04T01:24:15.884Z,1008.3
2016-06-04T01:25:15.887Z,1008.3
2016-06-04T01:26:15.890Z,1008.3
2016-06-04T01:27:17.128Z,1008.29
2016-06-04T01:28:15.881Z,1008.3
2016-06-04T01:29:15.884Z,1008.27
2016-06-04T01:30:15.887Z,1008.25
2016-06-04T01:31:15.905Z,1008.28
2016-06-04T01:32:16.298Z,1008.24
2016-06-04T01:33:15.879Z,1008.27
2016-06-04T01:34:15.881Z,1008.25
2016-06-04T01:35:15.870Z,1008.24
2016-06-04T01:36:17.497Z,1008.26
2016-06-04T01:37:16.921Z,1008.28
2016-06-04T01:38:15.878Z,1008.24
2016-06-04T01:39:15.864Z,1008.22
2016-06-04T01:40:15.867Z,1008.2
2016-06-04T01:41:15.870Z,1008.19
2016-06-04T01:42:15.856Z,1008.24
2016-06-04T01:43:15.859Z,1008.2
2016-06-04T01:44:15.862Z,1008.18
2016-06-04T01:45:15.864Z,1008.2
2016-06-04T01:46:15.852Z,1008.2
2016-06-04T01:47:15.855Z,1008.18
2016-06-04T01:48:15.858Z,1008.19
2016-06-04T01:49:15.860Z,1008.21
2016-06-04T01:50:15.847Z,1008.16
2016-06-04T01:51:15.849Z,1008.16
2016-06-04T01:52:15.852Z,1008.15
2016-06-04T01:53:15.839Z,1008.17
2016-06-04T01:54:15.841Z,1008.13
2016-06-04T01:55:15.844Z,1008.1
2016-06-04T01:56:15.972Z,1008.12
2016-06-04T01:57:15.835Z,1008.13
2016-06-04T01:58:15.838Z,1008.13
2016-06-04T01:59:15.840Z,1008.14
2016-06-04T02:00:15.842Z,1008.1
2016-06-04T02:01:15.830Z,1008.17
2016-06-04T02:02:15.832Z,1008.14
2016-06-04T02:03:15.834Z,1008.15
2016-06-04T02:04:15.823Z,1008.14
2016-06-04T02:05:15.825Z,1008.13
2016-06-04T02:06:15.827Z,1008.14
2016-06-04T02:07:15.831Z,1008.09
2016-06-04T02:08:15.817Z,1008.12
2016-06-04T02:09:15.819Z,1008.12
2016-06-04T02:10:15.823Z,1008.14
2016-06-04T02:11:15.920Z,1008.1
2016-06-04T02:12:15.811Z,1008.08
2016-06-04T02:13:15.815Z,1008.08
2016-06-04T02:14:15.817Z,1008.07
2016-06-04T02:15:15.805Z,1008.1
2016-06-04T02:16:15.807Z,1008.07
2016-06-04T02:17:15.810Z,1008.11
2016-06-04T02:18:15.813Z,1008.1
2016-06-04T02:19:15.800Z,1008.12
2016-06-04T02:20:15.802Z,1008.13
2016-06-04T02:21:15.805Z,1008.13
2016-06-04T02:22:15.792Z,1008.11
2016-06-04T02:23:15.795Z,1008.11
2016-06-04T02:24:15.798Z,1008.12
2016-06-04T02:25:15.800Z,1008.12
2016-06-04T02:26:15.787Z,1008.07
2016-06-04T02:27:15.790Z,1008.08
2016-06-04T02:28:15.793Z,1008.1
2016-06-04T02:29:15.779Z,1008.08
2016-06-04T02:30:15.782Z,1008.1
2016-06-04T02:31:15.801Z,1008.09
2016-06-04T02:32:15.788Z,1008.12
2016-06-04T02:33:15.775Z,1008.1
2016-06-04T02:34:15.778Z,1008.12
2016-06-04T02:35:15.781Z,1008.11
2016-06-04T02:36:15.784Z,1008.11
2016-06-04T02:37:15.770Z,1008.13
2016-06-04T02:38:15.772Z,1008.14
2016-06-04T02:39:15.776Z,1008.13
2016-06-04T02:40:15.762Z,1008.13
2016-06-04T02:41:16.343Z,1008.14
2016-06-04T02:42:15.862Z,1008.12
2016-06-04T02:43:15.755Z,1008.14
2016-06-04T02:44:15.758Z,1008.15
2016-06-04T02:45:15.761Z,1008.14
2016-06-04T02:46:15.763Z,1008.16
2016-06-04T02:47:16.609Z,1008.18
2016-06-04T02:48:15.846Z,1008.16
2016-06-04T02:49:16.630Z,1008.19
2016-06-04T02:50:15.758Z,1008.17
2016-06-04T02:51:15.761Z,1008.16
2016-06-04T02:52:15.747Z,1008.16
2016-06-04T02:53:15.750Z,1008.15
2016-06-04T02:54:15.738Z,1008.19
2016-06-04T02:55:15.741Z,1008.18
2016-06-04T02:56:15.915Z,1008.16
2016-06-04T02:57:15.980Z,1008.17
2016-06-04T02:58:15.732Z,1008.17
2016-06-04T02:59:16.329Z,1008.19
2016-06-04T03:00:16.379Z,1008.16
2016-06-04T03:01:15.726Z,1008.18
2016-06-04T03:02:15.728Z,1008.14
2016-06-04T03:03:15.731Z,1008.21
2016-06-04T03:04:15.734Z,1008.18
2016-06-04T03:05:15.721Z,1008.17
2016-06-04T03:06:15.723Z,1008.19
2016-06-04T03:07:15.726Z,1008.19
2016-06-04T03:08:15.729Z,1008.19
2016-06-04T03:09:15.715Z,1008.16
2016-06-04T03:10:15.718Z,1008.16
2016-06-04T03:11:15.705Z,1008.19
2016-06-04T03:12:15.708Z,1008.17
2016-06-04T03:13:15.711Z,1008.21
2016-06-04T03:14:15.714Z,1008.2
2016-06-04T03:15:15.700Z,1008.22
2016-06-04T03:16:15.703Z,1008.23
2016-06-04T03:17:15.706Z,1008.25
2016-06-04T03:18:15.708Z,1008.23
2016-06-04T03:19:15.696Z,1008.24
2016-06-04T03:20:15.698Z,1008.23
2016-06-04T03:21:15.700Z,1008.24
2016-06-04T03:22:15.704Z,1008.28
2016-06-04T03:23:15.691Z,1008.2
2016-06-04T03:24:15.694Z,1008.25
2016-06-04T03:25:15.696Z,1008.3
2016-06-04T03:26:15.683Z,1008.29
2016-06-04T03:27:15.686Z,1008.31
2016-06-04T03:28:15.689Z,1008.3
2016-06-04T03:29:15.691Z,1008.33
2016-06-04T03:30:15.679Z,1008.31
2016-06-04T03:31:15.682Z,1008.3
2016-06-04T03:32:15.685Z,1008.31
2016-06-04T03:33:15.686Z,1008.28
2016-06-04T03:34:15.674Z,1008.31
2016-06-04T03:35:15.676Z,1008.3
2016-06-04T03:36:15.679Z,1008.29
2016-06-04T03:37:15.681Z,1008.33
2016-06-04T03:38:15.668Z,1008.35
2016-06-04T03:39:15.671Z,1008.37
2016-06-04T03:40:15.674Z,1008.36
2016-06-04T03:41:15.848Z,1008.4
2016-06-04T03:42:15.679Z,1008.4
2016-06-04T03:43:15.681Z,1008.42
2016-06-04T03:44:15.684Z,1008.42
2016-06-04T03:45:15.672Z,1008.43
2016-06-04T03:46:15.675Z,1008.46
2016-06-04T03:47:15.678Z,1008.5
2016-06-04T03:48:15.695Z,1008.51
2016-06-04T03:49:15.683Z,1008.48
2016-06-04T03:50:15.669Z,1008.5
2016-06-04T03:51:15.672Z,1008.58
2016-06-04T03:52:15.674Z,1008.62
2016-06-04T03:53:15.662Z,1008.64
2016-06-04T03:54:15.664Z,1008.62
2016-06-04T03:55:15.667Z,1008.64
2016-06-04T03:56:16.123Z,1008.58
2016-06-04T03:57:15.672Z,1008.61
2016-06-04T03:58:15.675Z,1008.63
2016-06-04T03:59:15.678Z,1008.65
2016-06-04T04:00:15.680Z,1008.64
2016-06-04T04:01:15.668Z,1008.61
2016-06-04T04:02:15.686Z,1008.64
2016-06-04T04:03:15.674Z,1008.66
2016-06-04T04:04:17.426Z,1008.66
2016-06-04T04:05:16.601Z,1008.73
2016-06-04T04:06:15.697Z,1008.7
2016-06-04T04:07:16.340Z,1008.73
2016-06-04T04:08:16.046Z,1008.72
2016-06-04T04:09:15.689Z,1008.74
2016-06-04T04:10:15.692Z,1008.75
2016-06-04T04:11:15.695Z,1008.77
2016-06-04T04:12:15.698Z,1008.76
2016-06-04T04:13:17.325Z,1008.8
2016-06-04T04:14:15.718Z,1008.76
2016-06-04T04:15:15.721Z,1008.81
2016-06-04T04:16:16.317Z,1008.82
2016-06-04T04:17:15.726Z,1008.88
2016-06-04T04:18:15.745Z,1008.87
2016-06-04T04:19:15.950Z,1008.89
2016-06-04T04:20:15.750Z,1008.93
2016-06-04T04:21:15.753Z,1008.92
2016-06-04T04:22:15.756Z,1008.95
2016-06-04T04:23:15.758Z,1008.97
2016-06-04T04:24:15.761Z,1008.99
2016-06-04T04:25:15.780Z,1008.98
2016-06-04T04:26:15.798Z,1008.97
2016-06-04T04:27:15.785Z,1009
2016-06-04T04:28:15.788Z,1008.98
2016-06-04T04:29:15.806Z,1008.98
2016-06-04T04:30:15.808Z,1009.04
2016-06-04T04:31:15.810Z,1009.01
2016-06-04T04:32:15.829Z,1008.98
2016-06-04T04:33:15.832Z,1008.98
2016-06-04T04:34:15.851Z,1008.96
2016-06-04T04:35:15.853Z,1008.94
2016-06-04T04:36:15.871Z,1008.96
2016-06-04T04:37:15.874Z,1009.01
2016-06-04T04:38:15.876Z,1009
2016-06-04T04:39:15.880Z,1009.03
2016-06-04T04:40:15.898Z,1009.04
2016-06-04T04:41:15.901Z,1009.13
2016-06-04T04:42:16.012Z,1009.15
2016-06-04T04:43:15.921Z,1009.21
2016-06-04T04:44:15.924Z,1009.21
2016-06-04T04:45:15.943Z,1009.24
2016-06-04T04:46:15.945Z,1009.24
2016-06-04T04:47:15.948Z,1009.26
2016-06-04T04:48:15.966Z,1009.31
2016-06-04T04:49:15.969Z,1009.35
2016-06-04T04:50:15.987Z,1009.35
2016-06-04T04:51:16.006Z,1009.37
2016-06-04T04:52:15.992Z,1009.36
2016-06-04T04:53:16.011Z,1009.37
2016-06-04T04:54:16.014Z,1009.41
2016-06-04T04:55:16.033Z,1009.42
2016-06-04T04:56:16.035Z,1009.45
2016-06-04T04:57:16.037Z,1009.44
2016-06-04T04:58:16.056Z,1009.55
2016-06-04T04:59:16.058Z,1009.65
2016-06-04T05:00:16.060Z,1009.71
2016-06-04T05:01:16.079Z,1009.71
2016-06-04T05:02:16.082Z,1009.74
2016-06-04T05:03:16.100Z,1009.71
2016-06-04T05:04:16.103Z,1009.77
2016-06-04T05:05:16.105Z,1009.76
2016-06-04T05:06:16.124Z,1009.8
2016-06-04T05:07:16.127Z,1009.81
2016-06-04T05:08:16.145Z,1009.86
2016-06-04T05:09:16.148Z,1009.9
2016-06-04T05:10:16.166Z,1009.91
2016-06-04T05:11:16.215Z,1009.97
2016-06-04T05:12:16.187Z,1010.02
2016-06-04T05:13:16.190Z,1010.1
2016-06-04T05:14:16.209Z,1010.07
2016-06-04T05:15:16.226Z,1010.17
2016-06-04T05:16:16.228Z,1010.23
2016-06-04T05:17:16.248Z,1010.3
2016-06-04T05:18:16.250Z,1010.37
2016-06-04T05:19:16.268Z,1010.49
2016-06-04T05:20:16.287Z,1010.48
2016-06-04T05:21:16.290Z,1010.47
2016-06-04T05:22:16.308Z,1010.47
2016-06-04T05:23:16.325Z,1010.49
2016-06-04T05:24:16.345Z,1010.6
2016-06-04T05:25:16.347Z,1010.6
2016-06-04T05:26:16.397Z,1010.47
2016-06-04T05:27:16.383Z,1010.42
2016-06-04T05:28:16.386Z,1010.42
2016-06-04T05:29:16.874Z,1010.47
2016-06-04T05:30:16.422Z,1010.47
2016-06-04T05:32:16.444Z,1010.45
2016-06-04T05:33:16.463Z,1010.44
2016-06-04T05:34:16.480Z,1010.42
2016-06-04T05:35:17.452Z,1010.46
2016-06-04T05:36:17.251Z,1010.62
2016-06-04T05:37:16.521Z,1010.81
2016-06-04T05:38:16.538Z,1011.1
2016-06-04T05:39:16.557Z,1011.34
2016-06-04T05:40:16.575Z,1011.61
2016-06-04T05:41:16.577Z,1011.72
2016-06-04T05:42:16.752Z,1011.62
2016-06-04T05:43:16.614Z,1011.63
2016-06-04T05:44:16.632Z,1011.35
2016-06-04T05:45:16.651Z,1010.66
2016-06-04T05:46:16.653Z,1010.41
2016-06-04T05:47:16.672Z,1010.64
2016-06-04T05:48:16.690Z,1010.85
2016-06-04T05:49:16.709Z,1010.92
2016-06-04T05:50:16.726Z,1010.95
2016-06-04T05:51:16.745Z,1011.18
2016-06-04T05:52:16.764Z,1011.32
2016-06-04T05:53:16.781Z,1011.35
2016-06-04T05:54:16.784Z,1011.38
2016-06-04T05:55:16.819Z,1011.36
2016-06-04T05:56:16.836Z,1011.43
2016-06-04T05:57:16.839Z,1011.49
2016-06-04T05:58:16.858Z,1011.57
2016-06-04T05:59:16.876Z,1011.63
2016-06-04T06:00:16.894Z,1011.6
2016-06-04T06:01:16.913Z,1011.73
2016-06-04T06:02:16.915Z,1011.92
2016-06-04T06:03:16.950Z,1011.93
2016-06-04T06:04:16.968Z,1011.84
2016-06-04T06:05:16.971Z,1011.8
2016-06-04T06:06:16.988Z,1011.76
2016-06-04T06:07:17.007Z,1011.76
2016-06-04T06:08:17.024Z,1011.73
2016-06-04T06:09:17.059Z,1011.6
2016-06-04T06:10:17.062Z,1011.44
2016-06-04T06:11:17.862Z,1011.4
2016-06-04T06:12:17.098Z,1011.39
2016-06-04T06:13:17.117Z,1011.38
2016-06-04T06:14:17.135Z,1011.31
2016-06-04T06:15:17.154Z,1011.27
2016-06-04T06:16:17.187Z,1011.2
2016-06-04T06:17:17.190Z,1011.22
2016-06-04T06:18:17.224Z,1011.16
2016-06-04T06:19:17.242Z,1011.08
2016-06-04T06:20:17.261Z,1011.04
2016-06-04T06:21:17.279Z,1011.08
2016-06-04T06:22:17.297Z,1011
2016-06-04T06:23:17.315Z,1010.94
2016-06-04T06:24:17.333Z,1010.9
2016-06-04T06:25:17.352Z,1010.85
2016-06-04T06:26:17.949Z,1010.78
2016-06-04T06:27:17.405Z,1010.72
2016-06-04T06:28:17.422Z,1010.69
2016-06-04T06:29:17.441Z,1010.71
2016-06-04T06:30:17.459Z,1010.73
2016-06-04T06:31:17.477Z,1010.72
2016-06-04T06:32:17.496Z,1010.68
2016-06-04T06:33:17.514Z,1010.65
2016-06-04T06:34:17.549Z,1010.65
2016-06-04T06:35:17.566Z,1010.67
2016-06-04T06:36:17.585Z,1010.65
2016-06-04T06:37:17.603Z,1010.66
2016-06-04T06:38:17.637Z,1010.68
2016-06-04T06:39:17.640Z,1010.68
2016-06-04T06:40:17.674Z,1010.74
2016-06-04T06:41:18.348Z,1010.76
2016-06-04T06:42:19.445Z,1010.8
2016-06-04T06:43:17.729Z,1010.78
2016-06-04T06:44:17.762Z,1010.81
2016-06-04T06:45:17.765Z,1010.79
2016-06-04T06:46:17.799Z,1010.82
2016-06-04T06:47:17.834Z,1010.82
2016-06-04T06:48:17.836Z,1010.83
2016-06-04T06:49:17.854Z,1010.82
2016-06-04T06:50:18.762Z,1010.81
2016-06-04T06:51:17.891Z,1010.89
2016-06-04T06:52:19.128Z,1010.82
2016-06-04T06:53:17.943Z,1010.82
2016-06-04T06:54:17.961Z,1010.86
2016-06-04T06:55:17.980Z,1010.83
2016-06-04T06:56:17.998Z,1010.85
2016-06-04T06:57:18.016Z,1010.88
2016-06-04T06:58:18.050Z,1010.85
2016-06-04T06:59:18.162Z,1010.87
2016-06-04T07:00:18.087Z,1010.85
2016-06-04T07:01:18.122Z,1010.91
2016-06-04T07:02:18.139Z,1010.98
2016-06-04T07:03:18.158Z,1010.91
2016-06-04T07:04:18.175Z,1010.86
2016-06-04T07:05:18.210Z,1010.93
2016-06-04T07:06:18.228Z,1010.97
2016-06-04T07:07:18.247Z,1010.98
2016-06-04T07:08:18.265Z,1011.01
2016-06-04T07:09:18.298Z,1010.94
2016-06-04T07:10:18.316Z,1011.01
2016-06-04T07:11:18.585Z,1011.07
2016-06-04T07:12:18.353Z,1011.1
2016-06-04T07:13:18.371Z,1011.18
2016-06-04T07:14:18.391Z,1011.2
2016-06-04T07:15:18.424Z,1011.16
2016-06-04T07:16:18.442Z,1011.16
2016-06-04T07:17:18.460Z,1011.17
2016-06-04T07:18:18.495Z,1011.15
2016-06-04T07:19:18.513Z,1011.12
2016-06-04T07:20:18.531Z,1011.17
2016-06-04T07:21:18.565Z,1011.18
2016-06-04T07:22:18.584Z,1011.28
2016-06-04T07:23:18.602Z,1011.34
2016-06-04T07:24:18.620Z,1011.33
2016-06-04T07:25:18.638Z,1011.38
2016-06-04T07:26:18.673Z,1011.36
2016-06-04T07:27:18.691Z,1011.33
2016-06-04T07:28:18.709Z,1011.34
2016-06-04T07:29:18.743Z,1011.26
2016-06-04T07:30:18.761Z,1011.17
2016-06-04T07:31:18.780Z,1011.17
2016-06-04T07:32:18.813Z,1011.24
2016-06-04T07:33:18.832Z,1011.21
2016-06-04T07:34:18.866Z,1011.17
2016-06-04T07:35:18.884Z,1011.12
2016-06-04T07:36:18.902Z,1011.03
2016-06-04T07:37:18.921Z,1011.05
2016-06-04T07:38:18.955Z,1011.08
2016-06-04T07:39:18.974Z,1011.04
2016-06-04T07:40:18.991Z,1011.06
2016-06-04T07:41:19.869Z,1011.15
2016-06-04T07:42:19.044Z,1011.21
2016-06-04T07:43:19.063Z,1011.33
2016-06-04T07:44:19.080Z,1011.36
2016-06-04T07:45:19.114Z,1011.38
2016-06-04T07:46:19.132Z,1011.35
2016-06-04T07:47:19.151Z,1011.32
2016-06-04T07:48:19.185Z,1011.31
2016-06-04T07:49:19.203Z,1011.31
2016-06-04T07:50:19.221Z,1011.37
2016-06-04T07:51:19.256Z,1011.36
2016-06-04T07:52:19.273Z,1011.29
2016-06-04T07:53:19.292Z,1011.21
2016-06-04T07:54:19.309Z,1011.21
2016-06-04T07:55:19.329Z,1011.25
2016-06-04T07:56:19.362Z,1011.21
2016-06-04T07:57:19.381Z,1011.21
2016-06-04T07:58:19.400Z,1011.23
2016-06-04T07:59:19.417Z,1011.18
2016-06-04T08:00:20.233Z,1011.14
2016-06-04T08:01:19.611Z,1011.17
2016-06-04T08:02:20.925Z,1011.14
2016-06-04T08:04:19.541Z,1011.07
2016-06-04T08:05:20.543Z,1011.04
2016-06-04T08:06:19.983Z,1011.04
2016-06-04T08:07:20.486Z,1010.99
2016-06-04T08:08:19.630Z,1010.94
2016-06-04T08:10:19.666Z,1010.7
2016-06-04T08:11:19.699Z,1010.7
2016-06-04T08:12:20.218Z,1010.75
2016-06-04T08:13:20.299Z,1010.79
2016-06-04T08:14:19.754Z,1010.82
2016-06-04T08:15:19.789Z,1010.73
2016-06-04T08:16:19.807Z,1010.76
2016-06-04T08:17:20.341Z,1010.7
2016-06-04T08:18:19.859Z,1010.69
2016-06-04T08:19:19.877Z,1010.71
2016-06-04T08:20:19.896Z,1010.68
2016-06-04T08:21:19.914Z,1010.66
2016-06-04T08:22:19.932Z,1010.64
2016-06-04T08:23:19.966Z,1010.68
2016-06-04T08:24:19.985Z,1010.65
2016-06-04T08:25:20.003Z,1010.64
2016-06-04T08:26:20.021Z,1010.58
2016-06-04T08:27:20.040Z,1010.54
2016-06-04T08:28:20.073Z,1010.58
2016-06-04T08:29:20.092Z,1010.54
2016-06-04T08:30:20.110Z,1010.6
2016-06-04T08:31:20.128Z,1010.56
2016-06-04T08:32:20.162Z,1010.52
2016-06-04T08:33:20.196Z,1010.43
2016-06-04T08:34:20.200Z,1010.42
2016-06-04T08:35:20.217Z,1010.44
2016-06-04T08:36:23.876Z,1010.43
2016-06-04T08:37:20.269Z,1010.42
2016-06-04T08:38:20.288Z,1010.41
2016-06-04T08:39:20.305Z,1010.4
2016-06-04T08:40:20.324Z,1010.43
2016-06-04T08:41:20.358Z,1010.39
2016-06-04T08:42:20.876Z,1010.36
2016-06-04T08:43:20.395Z,1010.39
2016-06-04T08:44:20.414Z,1010.41
2016-06-04T08:45:20.432Z,1010.41
2016-06-04T08:46:20.466Z,1010.44
2016-06-04T08:47:20.468Z,1010.39
2016-06-04T08:48:20.487Z,1010.37
2016-06-04T08:49:20.521Z,1010.35
2016-06-04T08:50:20.539Z,1010.32
2016-06-04T08:51:20.557Z,1010.23
2016-06-04T08:52:20.576Z,1010.06
2016-06-04T08:53:20.593Z,1009.86
2016-06-04T08:54:20.612Z,1009.91
2016-06-04T08:55:20.631Z,1009.89
2016-06-04T08:56:20.648Z,1009.85
2016-06-04T08:57:20.683Z,1009.8
2016-06-04T08:58:20.701Z,1009.73
2016-06-04T08:59:20.719Z,1009.79
2016-06-04T09:00:20.737Z,1009.79
2016-06-04T09:01:20.740Z,1009.78
2016-06-04T09:02:20.775Z,1009.79
2016-06-04T09:03:20.777Z,1009.76
2016-06-04T09:04:20.795Z,1009.71
2016-06-04T09:05:20.814Z,1009.73
2016-06-04T09:06:20.833Z,1009.75
2016-06-04T09:07:20.850Z,1009.66
2016-06-04T09:08:20.869Z,1009.75
2016-06-04T09:09:20.872Z,1009.68
2016-06-04T09:10:20.889Z,1009.73
2016-06-04T09:11:20.908Z,1009.72
2016-06-04T09:12:20.927Z,1009.71
2016-06-04T09:13:20.929Z,1009.73
2016-06-04T09:14:20.947Z,1009.59
2016-06-04T09:15:20.965Z,1009.7
2016-06-04T09:16:20.969Z,1009.62
2016-06-04T09:17:20.987Z,1009.69
2016-06-04T09:18:21.004Z,1009.71
2016-06-04T09:19:21.774Z,1009.62
2016-06-04T09:20:21.026Z,1009.59
2016-06-04T09:21:21.044Z,1009.59
2016-06-04T09:22:22.563Z,1009.58
2016-06-04T09:23:21.065Z,1009.59
2016-06-04T09:24:21.068Z,1009.59
2016-06-04T09:25:21.087Z,1009.65
2016-06-04T09:26:21.089Z,1009.69
2016-06-04T09:27:21.107Z,1009.64
2016-06-04T09:29:22.551Z,1009.67
2016-06-04T09:30:21.131Z,1009.73
2016-06-04T09:31:21.149Z,1009.7
2016-06-04T09:32:21.167Z,1009.71
2016-06-04T09:33:21.531Z,1009.75
2016-06-04T09:34:21.173Z,1009.76
2016-06-04T09:35:21.192Z,1009.72
2016-06-04T09:36:21.194Z,1009.7
2016-06-04T09:37:21.212Z,1009.75
2016-06-04T09:38:21.215Z,1009.78
2016-06-04T09:39:21.233Z,1009.85
2016-06-04T09:40:21.236Z,1009.91
2016-06-04T09:41:21.239Z,1009.88
2016-06-04T09:42:21.258Z,1009.91
2016-06-04T09:43:21.260Z,1009.9
2016-06-04T09:44:21.278Z,1009.88
2016-06-04T09:45:21.280Z,1009.86
2016-06-04T09:46:21.299Z,1009.8
2016-06-04T09:47:21.302Z,1009.73
2016-06-04T09:48:21.304Z,1009.7
2016-06-04T09:49:21.323Z,1009.71
2016-06-04T09:50:21.341Z,1009.67
2016-06-04T09:51:21.344Z,1009.72
2016-06-04T09:52:21.346Z,1009.75
2016-06-04T09:53:21.364Z,1009.87
2016-06-04T09:54:21.368Z,1009.88
2016-06-04T09:55:21.385Z,1009.88
2016-06-04T09:56:21.388Z,1009.88
2016-06-04T09:57:21.406Z,1009.81
2016-06-04T09:58:21.519Z,1009.81
2016-06-04T09:59:21.412Z,1009.82
2016-06-04T10:00:21.431Z,1009.74
2016-06-04T10:01:21.433Z,1009.7
2016-06-04T10:02:21.451Z,1009.69
2016-06-04T10:03:21.454Z,1009.73
2016-06-04T10:04:21.457Z,1009.74
2016-06-04T10:05:21.492Z,1009.75
2016-06-04T10:06:21.523Z,1009.7
2016-06-04T10:07:21.569Z,1009.73
2016-06-04T10:08:21.600Z,1009.74
2016-06-04T10:09:21.645Z,1009.7
2016-06-04T10:10:21.664Z,1009.68
2016-06-04T10:11:22.162Z,1009.67
2016-06-04T10:12:21.706Z,1009.75
2016-06-04T10:13:21.719Z,1009.72
2016-06-04T10:14:21.746Z,1009.64
2016-06-04T10:15:21.755Z,1009.66
2016-06-04T10:16:21.761Z,1009.68
2016-06-04T10:17:21.782Z,1009.72
2016-06-04T10:18:21.788Z,1009.78
2016-06-04T10:19:21.811Z,1009.82
2016-06-04T10:20:21.816Z,1009.88
2016-06-04T10:21:25.070Z,1009.87
2016-06-04T10:22:21.839Z,1009.8
2016-06-04T10:23:21.843Z,1009.8
2016-06-04T10:24:21.864Z,1009.75
2016-06-04T10:25:21.867Z,1009.75
2016-06-04T10:26:21.886Z,1009.77
2016-06-04T10:27:21.890Z,1009.68
2016-06-04T10:28:21.892Z,1009.7
2016-06-04T10:29:21.911Z,1009.61
2016-06-04T10:30:21.913Z,1009.6
2016-06-04T10:31:21.932Z,1009.57
2016-06-04T10:32:21.935Z,1009.63
2016-06-04T10:33:21.937Z,1009.63
2016-06-04T10:34:21.955Z,1009.6
2016-06-04T10:35:21.958Z,1009.57
2016-06-04T10:36:21.976Z,1009.59
2016-06-04T10:37:22.432Z,1009.59
2016-06-04T10:38:22.545Z,1009.62
2016-06-04T10:39:22.001Z,1009.63
2016-06-04T10:40:23.018Z,1009.61
2016-06-04T10:41:22.021Z,1009.64
2016-06-04T10:42:22.024Z,1009.65
2016-06-04T10:43:22.699Z,1009.72
2016-06-04T10:44:22.498Z,1009.7
2016-06-04T10:45:22.048Z,1009.74
2016-06-04T10:46:23.347Z,1009.67
2016-06-04T10:47:22.070Z,1009.71
2016-06-04T10:48:22.322Z,1009.66
2016-06-04T10:49:22.089Z,1009.68
2016-06-04T10:50:25.045Z,1009.62
2016-06-04T10:52:22.317Z,1009.58
2016-06-04T10:54:22.384Z,1009.47
2016-06-04T10:55:22.136Z,1009.59
2016-06-04T10:56:22.139Z,1009.65
2016-06-04T10:57:22.142Z,1009.66
2016-06-04T10:58:22.519Z,1009.69
2016-06-04T10:59:22.164Z,1009.67
2016-06-04T11:00:22.182Z,1009.65
2016-06-04T11:01:22.185Z,1009.62
2016-06-04T11:02:22.188Z,1009.56
2016-06-04T11:03:22.206Z,1009.56
2016-06-04T11:04:22.208Z,1009.49
2016-06-04T11:05:22.211Z,1009.56
2016-06-04T11:06:22.229Z,1009.59
2016-06-04T11:07:22.248Z,1009.63
2016-06-04T11:08:22.251Z,1009.63
2016-06-04T11:09:22.253Z,1009.64
2016-06-04T11:10:22.256Z,1009.58
2016-06-04T11:11:22.273Z,1009.67
2016-06-04T11:12:22.277Z,1009.69
2016-06-04T11:13:22.295Z,1009.73
2016-06-04T11:14:22.298Z,1009.79
2016-06-04T11:15:22.301Z,1009.76
2016-06-04T11:16:22.319Z,1009.83
2016-06-04T11:17:22.321Z,1009.84
2016-06-04T11:18:22.324Z,1009.74
2016-06-04T11:19:22.343Z,1009.64
2016-06-04T11:20:22.345Z,1009.6
2016-06-04T11:21:22.364Z,1009.61
2016-06-04T11:22:22.366Z,1009.59
2016-06-04T11:23:22.369Z,1009.6
2016-06-04T11:24:22.387Z,1009.58
2016-06-04T11:25:22.390Z,1009.58
2016-06-04T11:26:22.408Z,1009.54
2016-06-04T11:27:23.255Z,1009.53
2016-06-04T11:28:22.414Z,1009.56
2016-06-04T11:29:22.433Z,1009.53
2016-06-04T11:30:22.435Z,1009.58
2016-06-04T11:31:22.453Z,1009.61
2016-06-04T11:32:22.455Z,1009.61
2016-06-04T11:33:22.474Z,1009.62
2016-06-04T11:34:22.477Z,1009.58
2016-06-04T11:35:22.495Z,1009.63
2016-06-04T11:36:22.497Z,1009.58
2016-06-04T11:37:22.515Z,1009.59
2016-06-04T11:38:22.519Z,1009.64
2016-06-04T11:39:22.537Z,1009.53
2016-06-04T11:40:22.540Z,1009.6
2016-06-04T11:41:22.542Z,1009.56
2016-06-04T11:42:22.560Z,1009.59
2016-06-04T11:43:22.562Z,1009.52
2016-06-04T11:44:22.582Z,1009.59
2016-06-04T11:45:22.600Z,1009.65
2016-06-04T11:46:22.602Z,1009.62
2016-06-04T11:47:22.606Z,1009.57
2016-06-04T11:48:22.624Z,1009.76
2016-06-04T11:49:22.626Z,1009.65
2016-06-04T11:50:22.645Z,1009.67
2016-06-04T11:51:22.648Z,1009.57
2016-06-04T11:52:22.665Z,1009.5
2016-06-04T11:53:22.668Z,1009.58
2016-06-04T11:54:22.687Z,1009.53
2016-06-04T11:55:22.689Z,1009.56
2016-06-04T11:57:23.039Z,1009.55
2016-06-04T11:58:23.713Z,1009.6
2016-06-04T11:59:22.731Z,1009.55
2016-06-04T12:00:22.734Z,1009.51
2016-06-04T12:01:22.752Z,1009.53
2016-06-04T12:02:22.755Z,1009.45
2016-06-04T12:03:22.773Z,1009.43
2016-06-04T12:04:22.777Z,1009.38
2016-06-04T12:05:22.794Z,1009.35
2016-06-04T12:06:22.813Z,1009.35
2016-06-04T12:07:22.815Z,1009.34
2016-06-04T12:08:22.819Z,1009.26
2016-06-04T12:10:23.089Z,1009.23
2016-06-04T12:11:23.841Z,1009.25
2016-06-04T12:12:22.876Z,1009.23
2016-06-04T12:13:23.066Z,1009.18
2016-06-04T12:14:22.881Z,1009.24
2016-06-04T12:15:22.899Z,1009.22
2016-06-04T12:16:22.996Z,1009.2
2016-06-04T12:17:22.904Z,1009.22